Dati Storici

Data ora Umidita' aria (%) Temperatura aria (°C) Rad globale (W/m²) Gonioanemometro (°) Tacoanemometro (m/s) Pioggia (mm)
26-06-2020 20:50 73.5 % 24.836 128.084 0.174 0 0
26-06-2020 20:40 73.2 % 24.906 170.558 0.277 0 0
26-06-2020 20:30 72.7 % 24.829 151.576 0.333 0 0
26-06-2020 20:20 73.3 % 24.863 140.326 0.908 0 0
26-06-2020 20:10 71.6 % 24.987 174.121 1.546 0 0
26-06-2020 20:00 72.3 % 24.887 52.194 0.624 0 0
26-06-2020 19:50 70.1 % 24.923 100.644 1.673 0 0
26-06-2020 19:40 68.5 % 25.255 122.473 1.308 0 0
26-06-2020 19:30 65.4 % 25.506 67.068 0.396 0 0
26-06-2020 19:20 65.8 % 25.962 102.484 -0.036 0 0
26-06-2020 19:10 65.9 % 26.174 126.936 1.305 0 0
26-06-2020 19:00 65.3 % 26.034 96.418 -0.039 0 0
26-06-2020 18:50 64.3 % 26.344 106.016 0.65 0 0
26-06-2020 18:40 64.6 % 26.656 50.569 -0.043 0 0
26-06-2020 18:30 64.1 % 26.65 61.502 0.859 0 0
26-06-2020 18:20 63.8 % 26.478 32.603 1.465 0 0
26-06-2020 18:10 62.4 % 27.124 65.592 2.162 0 0
26-06-2020 18:00 59.8 % 27.013 77.89 1.475 0 0
26-06-2020 17:50 60.7 % 27.41 -50.434 1.045 0 0
26-06-2020 17:40 61 % 27.525 111.406 1.625 0 0

I dati sono presentati in modo automatico a scopo informativo. In seguito a verifica i dati possono subire modifiche o essere invalidati e non riportati negli archivi definitivi.